Time;durP1;ratioP1;P1;durP2;ratioP2;P2;SDS_P1;SDS_P2;PMS_P1;PMS_P2;Temp;Humidity;BMP_temperature;BMP_pressure;BME280_temperature;BME280_humidity;BME280_pressure;Samples;Min_cycle;Max_cycle;Signal;HPM_P1;HPM_P2
2022/01/30 00:02:18;;;;;;;0.70;0.60;;;7.40;99.90;;;;;;5066624;28;20474;-74
2022/01/30 00:04:44;;;;;;;0.67;0.60;;;7.40;99.90;;;;;;5074374;28;20185;-75
2022/01/30 00:07:09;;;;;;;0.90;0.90;;;7.40;99.90;;;;;;5073406;28;20194;-74
2022/01/30 00:09:35;;;;;;;0.60;0.60;;;7.40;99.90;;;;;;5074991;28;20186;-74
2022/01/30 00:12:03;;;;;;;0.87;0.87;;;7.40;99.90;;;;;;5074381;28;20170;-75
2022/01/30 00:14:33;;;;;;;0.70;0.67;;;7.40;99.90;;;;;;5074577;28;20169;-74
2022/01/30 00:17:24;;;;;;;0.67;0.60;;;7.40;99.90;;;;;;5074770;28;20426;-74
2022/01/30 00:19:55;;;;;;;0.70;0.60;;;7.40;99.90;;;;;;5073891;28;20985;-74
2022/01/30 00:25:12;;;;;;;2.20;2.10;;;7.30;99.90;;;;;;5074911;28;20428;-74
2022/01/30 00:27:48;;;;;;;0.70;0.70;;;7.30;99.90;;;;;;5073877;28;20460;-75
2022/01/30 00:30:15;;;;;;;0.67;0.60;;;7.20;99.90;;;;;;5074813;28;20829;-75
2022/01/30 00:32:42;;;;;;;0.60;0.60;;;7.20;99.90;;;;;;5069955;28;20784;-75
2022/01/30 00:35:11;;;;;;;0.70;0.60;;;7.20;99.90;;;;;;5066547;28;20416;-75
2022/01/30 00:37:40;;;;;;;0.67;0.57;;;7.10;99.90;;;;;;5073432;28;20428;-75
2022/01/30 00:40:07;;;;;;;0.70;0.60;;;7.10;99.90;;;;;;5072849;28;20404;-75
2022/01/30 00:42:33;;;;;;;0.67;0.60;;;7.00;99.90;;;;;;5072535;28;20421;-75
2022/01/30 00:44:59;;;;;;;0.67;0.57;;;7.00;99.90;;;;;;5073189;28;20419;-75
2022/01/30 00:47:24;;;;;;;0.70;0.70;;;6.90;99.90;;;;;;5074240;28;20440;-75
2022/01/30 00:49:50;;;;;;;0.67;0.60;;;6.90;99.90;;;;;;5074264;28;20170;-75
2022/01/30 00:52:17;;;;;;;0.67;0.60;;;6.90;99.90;;;;;;5073583;28;20216;-75
2022/01/30 00:54:43;;;;;;;0.67;0.50;;;6.80;99.90;;;;;;5074178;28;20185;-75
2022/01/30 00:57:09;;;;;;;0.90;0.90;;;6.80;99.90;;;;;;5073973;28;20401;-75
2022/01/30 00:59:35;;;;;;;0.67;0.60;;;6.80;99.90;;;;;;5074252;28;20523;-75
2022/01/30 01:02:01;;;;;;;0.67;0.60;;;6.70;99.90;;;;;;5072462;28;20456;-75
2022/01/30 01:04:26;;;;;;;0.67;0.57;;;6.70;99.90;;;;;;5074118;28;20451;-75
2022/01/30 01:06:52;;;;;;;1.10;0.80;;;6.70;99.90;;;;;;5073232;28;20194;-75
2022/01/30 01:09:22;;;;;;;0.67;0.60;;;6.60;99.90;;;;;;5073471;28;20532;-75
2022/01/30 01:25:18;;;;;;;0.70;0.63;;;6.40;99.90;;;;;;5074277;28;20439;-75
2022/01/30 01:27:44;;;;;;;0.67;0.60;;;6.50;99.90;;;;;;5073698;28;20954;-75
2022/01/30 01:30:10;;;;;;;0.67;0.50;;;6.40;99.90;;;;;;5072624;28;20170;-75
2022/01/30 01:32:36;;;;;;;0.67;0.50;;;6.40;99.90;;;;;;5073280;28;20174;-76
2022/01/30 01:35:02;;;;;;;0.67;0.57;;;6.30;99.90;;;;;;5073903;28;20447;-75
2022/01/30 01:37:27;;;;;;;0.67;0.60;;;6.30;99.90;;;;;;5072075;28;20193;-75
2022/01/30 01:39:54;;;;;;;0.67;0.60;;;6.30;99.90;;;;;;5074380;28;20185;-75
2022/01/30 01:42:20;;;;;;;0.63;0.60;;;6.30;99.90;;;;;;5073573;28;20529;-75
2022/01/30 01:44:49;;;;;;;0.67;0.60;;;6.30;99.90;;;;;;5072100;28;20401;-75
2022/01/30 01:47:18;;;;;;;1.03;1.03;;;6.20;99.90;;;;;;5072819;28;20198;-75
2022/01/30 01:49:46;;;;;;;0.67;0.50;;;6.20;99.90;;;;;;5077487;28;20925;-74
2022/01/30 01:54:46;;;;;;;0.67;0.50;;;6.20;99.90;;;;;;5076773;28;20432;-75
2022/01/30 01:57:12;;;;;;;0.73;0.60;;;6.10;99.90;;;;;;5076132;28;20477;-75
2022/01/30 01:59:37;;;;;;;0.70;0.60;;;6.10;99.90;;;;;;5076570;28;20440;-75
2022/01/30 02:02:04;;;;;;;0.93;0.83;;;6.10;99.90;;;;;;5075981;28;20184;-75
2022/01/30 02:04:30;;;;;;;0.60;0.57;;;6.10;99.90;;;;;;5072468;28;20182;-74
2022/01/30 02:09:34;;;;;;;0.60;0.50;;;6.00;99.90;;;;;;5070093;28;20444;-75
2022/01/30 02:12:01;;;;;;;0.67;0.57;;;6.00;99.90;;;;;;5074421;28;21022;-74
2022/01/30 02:14:42;;;;;;;0.67;0.53;;;6.00;99.90;;;;;;5064678;28;20438;-75
2022/01/30 02:25:37;;;;;;;0.67;0.60;;;5.90;99.90;;;;;;5065835;28;20435;-74
2022/01/30 02:28:09;;;;;;;0.80;0.70;;;5.90;99.90;;;;;;5056846;28;20482;-74
2022/01/30 02:30:38;;;;;;;1.13;1.03;;;5.90;99.90;;;;;;5064161;28;20427;-75
2022/01/30 02:33:04;;;;;;;0.67;0.50;;;5.90;99.90;;;;;;5076977;28;20625;-75
2022/01/30 02:35:29;;;;;;;0.67;0.50;;;5.90;99.90;;;;;;5074995;28;20455;-74
2022/01/30 02:37:57;;;;;;;0.70;0.70;;;5.90;99.90;;;;;;5075851;28;20705;-74
2022/01/30 02:40:23;;;;;;;0.80;0.80;;;5.80;99.90;;;;;;5076955;28;20166;-74
2022/01/30 02:42:51;;;;;;;0.67;0.60;;;5.80;99.90;;;;;;5074832;28;20420;-75
2022/01/30 02:45:19;;;;;;;0.80;0.80;;;5.80;99.90;;;;;;5071794;28;20262;-74
2022/01/30 02:50:36;;;;;;;0.67;0.60;;;5.80;99.90;;;;;;5076890;28;20446;-75
2022/01/30 02:53:05;;;;;;;0.60;0.50;;;5.70;99.90;;;;;;5074972;28;20438;-74
2022/01/30 02:55:31;;;;;;;0.67;0.50;;;5.80;99.90;;;;;;5070889;28;20428;-74
2022/01/30 02:57:58;;;;;;;0.70;0.57;;;5.80;99.90;;;;;;5075409;28;20459;-74
2022/01/30 03:00:23;;;;;;;0.67;0.50;;;5.80;99.90;;;;;;5074755;28;20499;-74
2022/01/30 03:02:49;;;;;;;0.67;0.60;;;5.80;99.90;;;;;;5076380;28;20571;-75
2022/01/30 03:05:14;;;;;;;0.90;0.90;;;5.80;99.90;;;;;;5075805;28;20189;-74
2022/01/30 03:07:40;;;;;;;0.67;0.50;;;5.80;99.90;;;;;;5075821;28;20682;-75
2022/01/30 03:10:06;;;;;;;0.67;0.53;;;5.70;99.90;;;;;;5076979;28;20175;-74
2022/01/30 03:12:32;;;;;;;0.67;0.50;;;5.70;99.90;;;;;;5079178;28;20184;-74
2022/01/30 03:14:57;;;;;;;1.10;1.10;;;5.70;99.90;;;;;;5076692;28;20499;-74
2022/01/30 03:17:23;;;;;;;0.67;0.50;;;5.70;99.90;;;;;;5075056;28;20543;-74
2022/01/30 03:19:49;;;;;;;0.67;0.60;;;5.70;99.90;;;;;;5074187;28;20596;-74
2022/01/30 03:22:14;;;;;;;1.53;1.43;;;5.60;99.90;;;;;;5075714;28;20705;-74
2022/01/30 03:24:40;;;;;;;1.30;0.80;;;5.60;99.90;;;;;;5073141;28;20181;-74
2022/01/30 03:27:09;;;;;;;0.63;0.60;;;5.60;99.90;;;;;;5075642;28;20194;-74
2022/01/30 03:29:37;;;;;;;0.70;0.70;;;5.60;99.90;;;;;;5075815;28;20726;-74
2022/01/30 03:32:03;;;;;;;0.60;0.53;;;5.60;99.90;;;;;;5074993;28;20502;-74
2022/01/30 03:34:28;;;;;;;0.60;0.50;;;5.60;99.90;;;;;;5073522;28;20475;-76
2022/01/30 03:36:54;;;;;;;0.67;0.53;;;5.60;99.90;;;;;;5074503;28;20412;-75
2022/01/30 03:39:19;;;;;;;0.67;0.67;;;5.50;99.90;;;;;;5074763;28;20650;-74
2022/01/30 03:41:45;;;;;;;0.60;0.50;;;5.50;99.90;;;;;;5074517;28;20163;-74
2022/01/30 03:44:10;;;;;;;0.70;0.60;;;5.50;99.90;;;;;;5073539;28;20194;-74
2022/01/30 03:46:36;;;;;;;0.67;0.53;;;5.50;99.90;;;;;;5074952;28;20295;-74
2022/01/30 03:49:02;;;;;;;0.67;0.60;;;5.50;99.90;;;;;;5074856;28;20236;-74
2022/01/30 03:51:28;;;;;;;0.67;0.60;;;5.50;99.90;;;;;;5074961;28;20200;-74
2022/01/30 03:53:53;;;;;;;0.67;0.60;;;5.50;99.90;;;;;;5074452;28;20440;-74
2022/01/30 03:56:19;;;;;;;0.67;0.50;;;5.50;99.90;;;;;;5073957;28;20185;-75
2022/01/30 03:58:44;;;;;;;0.70;0.67;;;5.50;99.90;;;;;;5073670;28;20209;-75
2022/01/30 04:01:10;;;;;;;0.70;0.60;;;5.40;99.90;;;;;;5074361;28;20588;-74
2022/01/30 04:03:36;;;;;;;0.67;0.60;;;5.40;99.90;;;;;;5069333;28;20591;-74
2022/01/30 04:06:03;;;;;;;3.40;3.20;;;5.40;99.90;;;;;;5064284;28;20198;-74
2022/01/30 04:08:29;;;;;;;0.70;0.60;;;5.40;99.90;;;;;;5073916;28;20523;-75
2022/01/30 04:10:55;;;;;;;0.67;0.60;;;5.40;99.90;;;;;;5073654;28;20893;-74
2022/01/30 04:13:20;;;;;;;0.60;0.50;;;5.30;99.90;;;;;;5074279;28;20765;-74
2022/01/30 04:15:46;;;;;;;0.67;0.60;;;5.30;99.90;;;;;;5073733;28;20662;-74
2022/01/30 04:18:12;;;;;;;2.03;0.87;;;5.40;99.90;;;;;;5073437;28;20206;-74
2022/01/30 04:20:38;;;;;;;0.67;0.50;;;5.30;99.90;;;;;;5073953;28;20689;-77
2022/01/30 04:23:04;;;;;;;0.63;0.50;;;5.30;99.90;;;;;;5073715;28;20432;-74
2022/01/30 04:25:29;;;;;;;0.60;0.60;;;5.30;99.90;;;;;;5073243;28;20432;-74
2022/01/30 04:27:55;;;;;;;0.60;0.60;;;5.40;99.90;;;;;;5072011;28;20532;-74
2022/01/30 04:30:21;;;;;;;0.60;0.50;;;5.40;99.90;;;;;;5073549;28;20208;-74
2022/01/30 04:32:47;;;;;;;0.60;0.60;;;5.40;99.90;;;;;;5073907;28;20170;-74
2022/01/30 04:35:25;;;;;;;0.67;0.53;;;5.40;99.90;;;;;;5072018;28;20787;-74
2022/01/30 05:04:53;;;;;;;0.70;0.60;;;5.70;99.90;;;;;;5073440;28;20420;-74
2022/01/30 05:09:45;;;;;;;0.60;0.57;;;5.80;99.90;;;;;;5074259;28;20408;-75
2022/01/30 05:12:12;;;;;;;1.47;1.13;;;5.90;99.90;;;;;;5070828;28;20469;-75
2022/01/30 05:14:38;;;;;;;0.63;0.50;;;5.90;99.90;;;;;;5072395;28;20174;-74
2022/01/30 05:17:05;;;;;;;0.60;0.60;;;5.90;99.90;;;;;;5071831;28;20424;-74
2022/01/30 05:19:32;;;;;;;0.67;0.60;;;5.90;99.90;;;;;;5073505;28;20429;-74
2022/01/30 05:21:58;;;;;;;1.27;0.80;;;6.00;99.90;;;;;;5072013;28;20415;-74
2022/01/30 05:24:24;;;;;;;1.00;0.90;;;6.00;99.90;;;;;;5073800;28;20454;-75
2022/01/30 05:26:50;;;;;;;0.63;0.53;;;6.00;99.90;;;;;;5072793;28;20585;-74
2022/01/30 05:29:16;;;;;;;0.60;0.57;;;6.00;99.90;;;;;;5073493;28;20451;-74
2022/01/30 05:31:42;;;;;;;1.33;1.23;;;6.10;99.90;;;;;;5073813;28;20809;-74
2022/01/30 05:34:09;;;;;;;0.67;0.60;;;6.00;99.90;;;;;;5072311;28;20945;-74
2022/01/30 05:36:38;;;;;;;0.60;0.60;;;6.00;99.90;;;;;;5073159;28;20751;-74
2022/01/30 05:39:04;;;;;;;0.67;0.50;;;5.90;99.90;;;;;;5073159;28;20455;-74
2022/01/30 05:41:32;;;;;;;0.60;0.60;;;5.90;99.90;;;;;;5072892;28;20966;-74
2022/01/30 05:44:00;;;;;;;0.70;0.50;;;5.70;99.90;;;;;;5072801;28;20467;-74
2022/01/30 05:46:37;;;;;;;0.67;0.50;;;5.60;99.90;;;;;;5073063;28;20452;-74
2022/01/30 05:49:03;;;;;;;0.67;0.50;;;5.60;99.90;;;;;;5072079;28;20481;-74
2022/01/30 05:51:29;;;;;;;0.60;0.50;;;5.50;99.90;;;;;;5071476;28;20826;-74
2022/01/30 05:53:55;;;;;;;0.67;0.50;;;5.50;99.90;;;;;;5071237;28;20436;-74
2022/01/30 05:56:21;;;;;;;0.67;0.60;;;5.40;99.90;;;;;;5071668;28;20182;-74
2022/01/30 05:58:46;;;;;;;0.67;0.63;;;5.40;99.90;;;;;;5071806;28;20667;-75
2022/01/30 06:01:12;;;;;;;0.67;0.60;;;5.40;99.90;;;;;;5072476;28;20951;-75
2022/01/30 06:03:37;;;;;;;0.67;0.50;;;5.30;99.90;;;;;;5071305;28;20643;-75
2022/01/30 06:06:03;;;;;;;0.70;0.60;;;5.20;99.90;;;;;;5072085;28;20284;-74
2022/01/30 06:08:41;;;;;;;0.67;0.60;;;5.20;99.90;;;;;;5072749;28;20222;-74
2022/01/30 06:11:08;;;;;;;0.77;0.77;;;5.10;99.90;;;;;;5072201;28;20166;-74
2022/01/30 06:13:34;;;;;;;0.63;0.50;;;5.10;99.90;;;;;;5072263;28;20428;-74
2022/01/30 06:15:59;;;;;;;0.67;0.53;;;5.10;99.90;;;;;;5072127;28;20438;-74
2022/01/30 06:18:26;;;;;;;1.03;1.03;;;5.10;99.90;;;;;;5068072;28;20190;-74
2022/01/30 06:20:51;;;;;;;0.67;0.57;;;5.10;99.90;;;;;;5059217;28;20206;-74
2022/01/30 06:23:17;;;;;;;0.67;0.50;;;5.10;99.90;;;;;;5070964;28;20432;-74
2022/01/30 06:25:43;;;;;;;0.67;0.50;;;5.10;99.90;;;;;;5071510;28;20425;-75
2022/01/30 06:28:09;;;;;;;0.67;0.50;;;5.10;99.90;;;;;;5072165;28;20199;-75
2022/01/30 06:30:34;;;;;;;0.67;0.50;;;5.00;99.90;;;;;;5072612;28;20177;-74
2022/01/30 06:33:00;;;;;;;0.67;0.50;;;5.00;99.90;;;;;;5072418;28;20416;-74
2022/01/30 06:35:26;;;;;;;0.63;0.50;;;5.00;99.90;;;;;;5074644;28;20182;-74
2022/01/30 06:37:51;;;;;;;0.80;0.70;;;5.00;99.90;;;;;;5073487;28;20570;-73
2022/01/30 06:40:17;;;;;;;0.67;0.60;;;5.00;99.90;;;;;;5075328;28;20431;-75
2022/01/30 06:42:43;;;;;;;0.67;0.50;;;5.00;99.90;;;;;;5075572;28;20182;-75
2022/01/30 06:45:09;;;;;;;0.70;0.60;;;5.00;99.90;;;;;;5075469;28;20186;-74
2022/01/30 06:47:45;;;;;;;0.67;0.50;;;5.10;99.90;;;;;;5074713;28;20678;-75
2022/01/30 06:50:11;;;;;;;0.67;0.60;;;5.00;99.90;;;;;;5073660;28;20420;-74
2022/01/30 06:52:37;;;;;;;0.67;0.60;;;5.10;99.90;;;;;;5075995;28;20420;-75
2022/01/30 06:55:04;;;;;;;0.70;0.63;;;5.20;99.90;;;;;;5074141;28;20843;-74
2022/01/30 06:57:30;;;;;;;0.70;0.60;;;5.20;99.90;;;;;;5073917;28;20511;-74
2022/01/30 06:59:56;;;;;;;0.60;0.53;;;5.30;99.90;;;;;;5074089;28;20977;-73
2022/01/30 07:02:21;;;;;;;0.67;0.57;;;5.40;99.90;;;;;;5074550;28;20170;-74
2022/01/30 07:04:48;;;;;;;0.67;0.60;;;5.40;99.90;;;;;;5073541;28;20185;-74
2022/01/30 07:07:13;;;;;;;0.87;0.87;;;5.40;99.90;;;;;;5074587;28;20283;-75
2022/01/30 07:09:39;;;;;;;0.63;0.60;;;5.50;99.90;;;;;;5073218;28;20480;-75
2022/01/30 07:12:05;;;;;;;0.67;0.60;;;5.50;99.90;;;;;;5075074;28;20416;-75
2022/01/30 07:14:31;;;;;;;0.60;0.50;;;5.50;99.90;;;;;;5074030;28;20260;-74
2022/01/30 07:16:57;;;;;;;0.67;0.50;;;5.40;99.90;;;;;;5073280;28;20478;-74
2022/01/30 07:19:22;;;;;;;0.60;0.53;;;5.40;99.90;;;;;;5074683;28;20234;-74
2022/01/30 07:21:48;;;;;;;0.60;0.60;;;5.40;99.90;;;;;;5074947;28;20448;-75
2022/01/30 07:24:14;;;;;;;0.70;0.60;;;5.40;99.90;;;;;;5074430;28;20200;-74
2022/01/30 07:26:40;;;;;;;0.83;0.83;;;5.30;99.90;;;;;;5073366;28;20230;-74
2022/01/30 07:29:05;;;;;;;0.80;0.80;;;5.20;99.90;;;;;;5073570;28;20479;-74
2022/01/30 07:31:34;;;;;;;0.67;0.57;;;5.30;99.90;;;;;;5072151;28;20182;-74
2022/01/30 07:34:00;;;;;;;0.67;0.50;;;5.30;99.90;;;;;;5073160;28;20657;-74
2022/01/30 07:36:27;;;;;;;0.70;0.60;;;5.30;99.90;;;;;;5073670;28;20417;-74
2022/01/30 07:38:54;;;;;;;0.67;0.60;;;5.40;99.90;;;;;;5073309;28;20448;-74
2022/01/30 07:41:21;;;;;;;1.00;0.90;;;5.50;99.90;;;;;;5074004;28;20818;-75
2022/01/30 07:43:46;;;;;;;0.60;0.50;;;5.50;99.90;;;;;;5074745;28;20429;-75
2022/01/30 07:46:12;;;;;;;0.67;0.60;;;5.60;99.90;;;;;;5073386;28;20463;-75
2022/01/30 07:48:37;;;;;;;0.60;0.50;;;5.60;99.90;;;;;;5072866;28;20190;-75
2022/01/30 07:51:03;;;;;;;0.60;0.60;;;5.60;99.90;;;;;;5074793;28;20194;-74
2022/01/30 07:53:29;;;;;;;1.53;1.43;;;5.60;99.90;;;;;;5072620;28;20260;-74
2022/01/30 07:55:54;;;;;;;0.70;0.70;;;5.60;99.90;;;;;;5073409;28;20186;-74
2022/01/30 07:58:20;;;;;;;1.50;1.40;;;5.60;99.90;;;;;;5073007;28;20273;-74
2022/01/30 08:00:46;;;;;;;0.70;0.60;;;5.60;99.90;;;;;;5073619;28;20200;-74
2022/01/30 08:03:11;;;;;;;0.70;0.70;;;5.60;99.90;;;;;;5073861;28;20826;-74
2022/01/30 08:05:38;;;;;;;0.67;0.60;;;5.80;99.90;;;;;;5073593;28;20253;-74
2022/01/30 08:08:04;;;;;;;0.67;0.57;;;5.80;99.90;;;;;;5075046;28;20197;-74
2022/01/30 08:10:30;;;;;;;0.67;0.53;;;5.80;99.90;;;;;;5075049;28;20425;-74
2022/01/30 08:12:55;;;;;;;0.67;0.50;;;5.90;99.90;;;;;;5073313;28;20424;-74
2022/01/30 08:15:22;;;;;;;0.70;0.60;;;6.00;99.90;;;;;;5073495;28;20173;-74
2022/01/30 08:17:48;;;;;;;0.67;0.60;;;6.00;99.90;;;;;;5073541;28;20200;-74
2022/01/30 08:20:13;;;;;;;0.67;0.50;;;6.00;99.90;;;;;;5073547;28;20428;-75
2022/01/30 08:22:50;;;;;;;0.67;0.60;;;6.10;99.90;;;;;;5074188;28;20872;-75
2022/01/30 08:25:21;;;;;;;0.60;0.50;;;6.20;99.90;;;;;;5072252;28;20184;-73
2022/01/30 08:27:48;;;;;;;1.20;1.10;;;6.30;99.90;;;;;;5072214;28;20467;-74
2022/01/30 08:30:14;;;;;;;0.67;0.53;;;6.70;99.90;;;;;;5072347;28;20792;-74
2022/01/30 08:32:45;;;;;;;0.67;0.60;;;7.60;99.90;;;;;;5072334;28;20429;-74
2022/01/30 08:35:13;;;;;;;0.80;0.80;;;8.30;99.90;;;;;;5072290;28;20474;-73
2022/01/30 08:37:39;;;;;;;0.67;0.60;;;8.30;99.90;;;;;;5073267;28;20420;-75
2022/01/30 08:40:08;;;;;;;0.67;0.60;;;8.10;99.90;;;;;;5074012;28;20937;-75
2022/01/30 08:42:33;;;;;;;0.70;0.60;;;7.80;99.90;;;;;;5088683;28;20470;-73
2022/01/30 08:44:59;;;;;;;0.67;0.60;;;7.80;99.90;;;;;;5088441;28;20427;-74
2022/01/30 08:47:25;;;;;;;0.87;0.87;;;8.20;99.90;;;;;;5080806;28;20658;-74
2022/01/30 08:49:51;;;;;;;1.53;1.43;;;9.20;99.90;;;;;;5072154;28;20178;-74
2022/01/30 08:52:19;;;;;;;0.70;0.60;;;10.20;99.90;;;;;;5070645;28;20541;-74
2022/01/30 08:54:51;;;;;;;0.70;0.70;;;11.20;99.90;;;;;;5072550;28;20736;-75
2022/01/30 08:57:17;;;;;;;3.80;3.47;;;12.20;99.90;;;;;;5072915;28;20425;-75
2022/01/30 08:59:43;;;;;;;4.87;1.23;;;13.00;99.90;;;;;;5070989;28;20456;-74
2022/01/30 09:02:08;;;;;;;2.60;2.50;;;13.60;99.90;;;;;;5072124;28;20408;-74
2022/01/30 09:04:34;;;;;;;0.70;0.60;;;14.10;99.90;;;;;;5072644;28;20776;-75
2022/01/30 09:07:00;;;;;;;0.70;0.60;;;14.40;99.90;;;;;;5072083;28;20212;-74
2022/01/30 09:09:25;;;;;;;0.70;0.70;;;13.90;98.20;;;;;;5071555;28;20198;-74
2022/01/30 09:11:51;;;;;;;0.70;0.60;;;13.30;99.90;;;;;;5071476;28;20522;-74
2022/01/30 09:14:17;;;;;;;0.87;0.87;;;12.60;99.90;;;;;;5071323;28;20223;-74
2022/01/30 09:16:44;;;;;;;1.50;1.37;;;11.90;99.90;;;;;;5071522;28;20430;-74
2022/01/30 09:19:10;;;;;;;3.23;1.33;;;11.10;99.90;;;;;;5071622;28;20194;-74
2022/01/30 09:21:35;;;;;;;0.70;0.70;;;10.90;99.90;;;;;;5071387;28;20492;-74
2022/01/30 09:24:01;;;;;;;1.33;1.23;;;10.80;99.90;;;;;;5071403;28;20186;-74
2022/01/30 09:26:26;;;;;;;0.70;0.60;;;10.70;99.90;;;;;;5063376;28;20202;-75
2022/01/30 09:28:52;;;;;;;1.53;1.43;;;10.40;99.90;;;;;;5073877;28;20243;-74
2022/01/30 09:31:18;;;;;;;1.30;1.20;;;10.20;99.90;;;;;;5072951;28;20182;-73
2022/01/30 09:33:43;;;;;;;0.70;0.70;;;9.90;99.90;;;;;;5071563;28;20177;-74
2022/01/30 09:36:09;;;;;;;0.70;0.60;;;9.40;99.90;;;;;;5071543;28;20185;-74
2022/01/30 09:38:34;;;;;;;0.87;0.87;;;9.30;99.90;;;;;;5073253;28;20257;-75
2022/01/30 09:41:03;;;;;;;1.47;1.37;;;9.20;99.90;;;;;;5072621;28;20265;-74
2022/01/30 09:43:29;;;;;;;0.70;0.60;;;9.00;99.90;;;;;;5071306;28;20581;-74
2022/01/30 09:45:56;;;;;;;1.23;1.13;;;8.90;99.90;;;;;;5070222;28;20416;-74
2022/01/30 09:48:23;;;;;;;1.70;1.60;;;9.00;99.90;;;;;;5070593;28;20455;-74
2022/01/30 09:50:50;;;;;;;0.67;0.60;;;9.20;99.90;;;;;;5072205;28;20426;-75
2022/01/30 09:53:16;;;;;;;4.77;2.57;;;10.10;99.90;;;;;;5073515;28;20455;-75
2022/01/30 09:55:42;;;;;;;0.70;0.60;;;11.30;99.90;;;;;;5073396;28;20518;-75
2022/01/30 09:58:08;;;;;;;0.70;0.70;;;12.60;99.90;;;;;;5072854;28;20470;-75
2022/01/30 10:00:34;;;;;;;1.07;0.87;;;13.90;99.90;;;;;;5073609;28;20254;-76
2022/01/30 10:03:00;;;;;;;2.30;0.70;;;14.20;99.90;;;;;;5073926;28;20946;-75
2022/01/30 10:05:27;;;;;;;0.70;0.60;;;13.60;99.90;;;;;;5073262;28;20420;-76
2022/01/30 10:07:56;;;;;;;0.80;0.70;;;13.60;99.90;;;;;;5074179;28;20206;-75
2022/01/30 10:10:29;;;;;;;1.43;1.33;;;14.50;99.90;;;;;;5076283;28;20416;-75
2022/01/30 10:13:09;;;;;;;1.33;1.00;;;15.00;96.30;;;;;;5077041;28;20474;-76
2022/01/30 10:16:03;;;;;;;1.30;1.20;;;15.20;94.20;;;;;;5077071;28;20972;-75
2022/01/30 10:18:33;;;;;;;1.40;1.07;;;14.80;94.00;;;;;;5075993;28;20940;-75
2022/01/30 10:21:00;;;;;;;0.70;0.60;;;15.00;93.30;;;;;;5074704;28;20420;-75
2022/01/30 10:23:36;;;;;;;2.87;1.30;;;15.70;91.70;;;;;;5074817;28;20936;-74
2022/01/30 10:26:08;;;;;;;0.80;0.80;;;16.50;89.10;;;;;;5056574;28;20455;-75
2022/01/30 10:28:34;;;;;;;0.70;0.63;;;15.90;84.80;;;;;;5074111;28;20517;-75
2022/01/30 10:31:05;;;;;;;1.07;0.97;;;15.10;85.80;;;;;;5080645;28;20424;-76
2022/01/30 10:33:57;;;;;;;0.80;0.70;;;15.40;91.10;;;;;;5076877;28;20423;-76
2022/01/30 10:36:25;;;;;;;0.70;0.70;;;16.50;83.60;;;;;;5063074;28;20440;-75
2022/01/30 10:39:04;;;;;;;1.90;0.80;;;17.00;78.40;;;;;;5077362;28;20489;-76
2022/01/30 10:41:41;;;;;;;1.93;1.37;;;17.70;76.00;;;;;;5074352;28;20780;-72
2022/01/30 10:44:08;;;;;;;0.70;0.60;;;17.10;74.90;;;;;;5076884;28;20512;-75
2022/01/30 10:46:45;;;;;;;1.83;1.33;;;15.70;73.40;;;;;;5074485;28;20463;-75
2022/01/30 10:49:13;;;;;;;2.70;0.90;;;14.80;79.20;;;;;;5073781;28;20447;-74
2022/01/30 10:51:40;;;;;;;1.37;0.93;;;13.90;82.70;;;;;;5073987;28;20789;-74
2022/01/30 10:54:07;;;;;;;0.80;0.63;;;13.10;87.50;;;;;;5080196;28;20436;-74
2022/01/30 10:56:35;;;;;;;1.50;1.40;;;12.60;91.80;;;;;;5072566;28;20420;-74
2022/01/30 10:59:07;;;;;;;0.80;0.70;;;12.30;94.90;;;;;;5073915;28;20448;-74
2022/01/30 11:01:33;;;;;;;2.50;2.23;;;12.50;97.30;;;;;;5073566;28;20412;-74
2022/01/30 11:04:00;;;;;;;1.07;0.97;;;12.80;96.70;;;;;;5073908;28;20424;-74
2022/01/30 11:06:28;;;;;;;4.10;1.03;;;14.00;95.60;;;;;;5074473;28;20459;-74
2022/01/30 11:09:03;;;;;;;4.37;1.17;;;15.40;92.30;;;;;;5075064;28;20451;-75
2022/01/30 11:19:20;;;;;;;0.90;0.90;;;14.20;82.30;;;;;;5076233;28;20557;-75
2022/01/30 11:21:49;;;;;;;6.10;1.53;;;13.10;89.00;;;;;;5075228;28;20404;-75
2022/01/30 11:24:16;;;;;;;0.70;0.60;;;12.60;91.30;;;;;;5076664;28;20433;-75
2022/01/30 11:26:46;;;;;;;0.70;0.60;;;12.20;91.80;;;;;;5075994;28;20440;-75
2022/01/30 11:29:15;;;;;;;1.57;1.47;;;12.20;91.00;;;;;;5075200;28;20953;-75
2022/01/30 11:31:42;;;;;;;2.97;0.70;;;12.40;92.50;;;;;;5076538;28;20893;-75
2022/01/30 11:34:08;;;;;;;1.30;0.80;;;14.10;91.80;;;;;;5075233;28;20420;-75
2022/01/30 11:36:43;;;;;;;1.60;1.43;;;15.90;84.70;;;;;;5075243;28;20416;-75
2022/01/30 11:39:14;;;;;;;0.70;0.60;;;16.10;77.70;;;;;;5075535;28;20462;-75
2022/01/30 11:41:40;;;;;;;3.83;1.27;;;17.50;74.60;;;;;;5077159;28;20400;-73
2022/01/30 11:44:17;;;;;;;1.43;1.03;;;17.90;69.60;;;;;;5075902;28;20484;-73
2022/01/30 11:46:53;;;;;;;1.63;1.00;;;18.10;66.60;;;;;;5076721;28;20186;-73
2022/01/30 11:49:18;;;;;;;0.70;0.60;;;17.80;64.30;;;;;;5075641;28;20477;-73
2022/01/30 11:51:54;;;;;;;0.70;0.60;;;17.30;64.90;;;;;;5058757;28;20447;-74
2022/01/30 11:54:36;;;;;;;0.70;0.60;;;16.50;69.10;;;;;;5065718;28;20189;-74
2022/01/30 11:57:03;;;;;;;0.70;0.60;;;16.50;70.80;;;;;;5075823;28;20409;-73
2022/01/30 11:59:39;;;;;;;0.80;0.80;;;15.90;66.50;;;;;;5075785;28;20425;-74
2022/01/30 12:02:21;;;;;;;1.27;0.97;;;14.60;69.30;;;;;;5076032;28;20404;-74
2022/01/30 12:05:03;;;;;;;0.70;0.60;;;14.00;72.50;;;;;;5074585;28;20429;-74
2022/01/30 12:07:34;;;;;;;1.73;1.37;;;13.30;73.20;;;;;;5075492;28;20459;-74
2022/01/30 12:10:22;;;;;;;1.00;1.00;;;12.90;76.10;;;;;;5085145;28;20399;-73
2022/01/30 12:12:52;;;;;;;2.07;1.30;;;13.10;77.00;;;;;;5096398;28;20403;-74
2022/01/30 12:15:45;;;;;;;1.43;1.33;;;13.70;76.10;;;;;;5095554;28;20392;-74
2022/01/30 12:18:12;;;;;;;0.70;0.60;;;13.50;71.40;;;;;;5064677;28;21015;-74
2022/01/30 12:20:56;;;;;;;1.13;0.93;;;13.40;74.40;;;;;;5075338;28;20404;-74
2022/01/30 12:23:37;;;;;;;0.70;0.70;;;14.20;73.40;;;;;;5075664;28;20435;-74
2022/01/30 12:26:14;;;;;;;0.70;0.63;;;14.50;68.00;;;;;;5071264;28;20989;-74
2022/01/30 12:28:52;;;;;;;1.40;1.30;;;14.00;69.00;;;;;;5065007;28;20444;-74
2022/01/30 12:31:32;;;;;;;1.73;1.03;;;13.40;70.90;;;;;;5074848;28;20478;-74
2022/01/30 12:33:58;;;;;;;1.80;1.60;;;12.80;72.00;;;;;;5075247;28;20774;-74
2022/01/30 12:36:24;;;;;;;1.10;1.00;;;12.90;73.00;;;;;;5075303;28;20430;-74
2022/01/30 12:38:59;;;;;;;2.03;0.90;;;13.00;71.60;;;;;;5074585;28;20432;-75
2022/01/30 12:41:27;;;;;;;0.70;0.60;;;12.90;70.80;;;;;;5074848;28;20244;-75
2022/01/30 12:43:55;;;;;;;0.70;0.60;;;12.30;71.60;;;;;;5072377;28;20424;-74
2022/01/30 12:46:24;;;;;;;0.90;0.90;;;11.90;73.70;;;;;;5074113;28;20448;-74
2022/01/30 12:49:05;;;;;;;2.13;2.03;;;11.80;75.50;;;;;;5075117;28;20435;-74
2022/01/30 12:51:30;;;;;;;1.73;1.63;;;12.30;77.50;;;;;;5074926;28;20420;-74
2022/01/30 12:53:57;;;;;;;5.43;0.77;;;12.90;74.50;;;;;;5074380;28;20433;-74
2022/01/30 12:56:26;;;;;;;1.17;0.83;;;14.00;71.20;;;;;;5075627;28;20189;-75
2022/01/30 12:58:56;;;;;;;0.77;0.73;;;15.30;67.80;;;;;;5070299;28;20449;-74
2022/01/30 13:01:26;;;;;;;0.93;0.93;;;15.60;66.00;;;;;;5069186;28;20429;-75
2022/01/30 13:04:02;;;;;;;0.80;0.67;;;15.30;62.60;;;;;;5075737;28;20526;-75
2022/01/30 13:06:36;;;;;;;0.90;0.80;;;15.30;63.30;;;;;;5075257;28;20440;-74
2022/01/30 13:09:04;;;;;;;3.27;0.80;;;14.90;62.30;;;;;;5075075;28;20936;-74
2022/01/30 13:11:29;;;;;;;0.70;0.60;;;14.40;63.30;;;;;;5074939;28;20420;-74
2022/01/30 13:13:57;;;;;;;3.00;0.90;;;14.60;64.80;;;;;;5074795;28;20971;-75
2022/01/30 13:16:33;;;;;;;1.13;0.97;;;15.60;62.90;;;;;;5074622;28;20167;-74
2022/01/30 13:18:59;;;;;;;0.70;0.60;;;15.60;61.50;;;;;;5074504;28;20450;-74
2022/01/30 13:21:27;;;;;;;1.63;1.53;;;15.50;61.40;;;;;;5070679;28;20425;-74
2022/01/30 13:23:53;;;;;;;0.80;0.73;;;15.10;61.70;;;;;;5067309;28;20424;-75
2022/01/30 13:26:43;;;;;;;1.43;1.13;;;14.50;63.90;;;;;;5074395;28;20480;-75
2022/01/30 13:29:13;;;;;;;0.70;0.60;;;13.70;65.50;;;;;;5072453;28;21007;-74
2022/01/30 13:31:39;;;;;;;0.70;0.60;;;13.00;66.10;;;;;;5074138;28;20423;-74
2022/01/30 13:34:09;;;;;;;0.70;0.70;;;12.40;67.10;;;;;;5073978;28;20426;-74
2022/01/30 13:36:35;;;;;;;0.70;0.70;;;12.10;70.60;;;;;;5072619;28;20420;-73
2022/01/30 13:39:06;;;;;;;0.70;0.60;;;13.20;71.00;;;;;;5072579;28;20445;-73
2022/01/30 13:41:34;;;;;;;0.80;0.70;;;14.70;65.70;;;;;;5073908;28;20201;-74
2022/01/30 13:44:00;;;;;;;0.70;0.60;;;15.80;63.20;;;;;;5072278;28;20425;-74
2022/01/30 13:49:13;;;;;;;3.10;1.27;;;18.40;59.20;;;;;;5079179;28;20254;-74
2022/01/30 13:51:39;;;;;;;2.80;1.20;;;19.30;56.70;;;;;;5078016;28;20844;-74
2022/01/30 13:54:13;;;;;;;0.70;0.60;;;19.80;54.80;;;;;;5078996;28;20428;-74
2022/01/30 13:56:38;;;;;;;3.80;1.40;;;19.90;53.70;;;;;;5079089;28;20206;-74
2022/01/30 13:59:04;;;;;;;2.90;0.90;;;20.50;51.60;;;;;;5077828;28;20482;-75
2022/01/30 14:01:30;;;;;;;1.00;0.93;;;19.80;51.00;;;;;;5078699;28;20180;-74
2022/01/30 14:04:09;;;;;;;1.10;1.00;;;18.00;52.00;;;;;;5078563;28;20261;-74
2022/01/30 14:06:36;;;;;;;0.70;0.60;;;17.00;52.50;;;;;;5077467;28;20687;-74
2022/01/30 14:09:13;;;;;;;0.90;0.73;;;16.60;55.20;;;;;;5078068;28;20451;-74
2022/01/30 14:11:40;;;;;;;1.07;0.90;;;16.50;55.40;;;;;;5078256;28;20423;-74